createdAt,value
2023-02-28T00:06:06.753Z,8.53
2023-02-28T00:08:34.788Z,8.27
2023-02-28T00:11:09.997Z,7.82
2023-02-28T00:13:41.329Z,7.60
2023-02-28T00:16:12.901Z,7.40
2023-02-28T00:18:40.432Z,8.93
2023-02-28T00:21:08.494Z,7.53
2023-02-28T00:23:36.117Z,8.32
2023-02-28T00:26:03.427Z,8.75
2023-02-28T00:28:31.068Z,9.55
2023-02-28T00:30:58.960Z,8.82
2023-02-28T00:33:26.333Z,9.05
2023-02-28T00:35:53.735Z,10.18
2023-02-28T00:38:21.459Z,8.55
2023-02-28T00:40:49.452Z,9.57
2023-02-28T00:56:50.504Z,6.95
2023-02-28T01:02:09.203Z,9.43
2023-02-28T01:04:37.459Z,9.45
2023-02-28T01:07:04.890Z,8.82
2023-02-28T01:09:32.182Z,8.68
2023-02-28T01:11:59.723Z,9.52
2023-02-28T01:14:27.168Z,8.82
2023-02-28T01:16:54.502Z,9.32
2023-02-28T01:19:22.062Z,8.48
2023-02-28T01:21:55.022Z,9.02
2023-02-28T01:24:22.296Z,8.82
2023-02-28T01:26:49.597Z,7.93
2023-02-28T01:29:17.300Z,8.75
2023-02-28T01:31:44.573Z,10.00
2023-02-28T01:34:11.803Z,8.32
2023-02-28T01:36:39.028Z,8.88
2023-02-28T01:39:06.363Z,7.97
2023-02-28T01:41:34.893Z,9.02
2023-02-28T01:44:04.336Z,8.85
2023-02-28T01:46:32.476Z,8.82
2023-02-28T01:49:03.425Z,8.27
2023-02-28T01:51:31.250Z,8.43
2023-02-28T01:54:01.663Z,8.63
2023-02-28T01:56:30.980Z,7.68
2023-02-28T01:58:58.751Z,7.72
2023-02-28T02:01:28.178Z,7.35
2023-02-28T02:03:59.780Z,7.72
2023-02-28T02:06:29.061Z,7.63
2023-02-28T02:08:56.426Z,7.68
2023-02-28T02:11:24.688Z,9.05
2023-02-28T02:14:10.711Z,7.55
2023-02-28T02:16:37.968Z,6.85
2023-02-28T02:19:20.631Z,8.15
2023-02-28T02:21:47.878Z,7.70
2023-02-28T02:24:30.345Z,7.65
2023-02-28T02:26:57.626Z,7.60
2023-02-28T02:29:24.883Z,7.93
2023-02-28T02:31:53.222Z,8.05
2023-02-28T02:34:35.936Z,6.68
2023-02-28T02:37:22.165Z,7.60
2023-02-28T02:39:53.569Z,7.63
2023-02-28T02:42:31.373Z,8.38
2023-02-28T02:45:06.123Z,9.27
2023-02-28T02:47:33.889Z,8.65
2023-02-28T02:50:03.278Z,7.65
2023-02-28T02:52:33.665Z,8.15
2023-02-28T02:55:04.115Z,8.63
2023-02-28T02:57:34.171Z,8.00
2023-02-28T03:00:02.306Z,8.60
2023-02-28T03:02:35.219Z,7.88
2023-02-28T03:05:04.487Z,7.07
2023-02-28T03:07:31.861Z,7.90
2023-02-28T03:10:00.393Z,7.43
2023-02-28T03:12:50.801Z,7.55
2023-02-28T03:15:30.911Z,7.45
2023-02-28T03:18:12.871Z,6.78
2023-02-28T03:20:52.330Z,6.15
2023-02-28T03:23:27.959Z,8.32
2023-02-28T03:25:57.270Z,7.95
2023-02-28T03:28:35.843Z,6.20
2023-02-28T03:31:10.320Z,6.47
2023-02-28T03:33:37.811Z,6.82
2023-02-28T03:36:14.150Z,6.72
2023-02-28T03:39:33.602Z,7.57
2023-02-28T03:42:03.010Z,7.85
2023-02-28T03:44:34.927Z,8.40
2023-02-28T03:47:10.318Z,7.40
2023-02-28T03:49:43.293Z,8.90
2023-02-28T03:52:11.157Z,7.63
2023-02-28T03:54:44.958Z,8.20
2023-02-28T03:57:33.909Z,8.13
2023-02-28T04:00:27.254Z,7.30
2023-02-28T04:05:44.603Z,6.78
2023-02-28T04:08:14.598Z,7.47
2023-02-28T04:10:45.675Z,8.38
2023-02-28T04:13:13.250Z,6.70
2023-02-28T04:15:41.879Z,7.38
2023-02-28T04:18:09.755Z,7.30
2023-02-28T04:20:37.251Z,7.43
2023-02-28T04:23:18.265Z,7.28
2023-02-28T04:25:56.186Z,6.78
2023-02-28T04:28:23.583Z,7.55
2023-02-28T04:30:56.783Z,7.85
2023-02-28T04:36:08.620Z,7.68
2023-02-28T04:38:44.940Z,8.52
2023-02-28T04:41:12.464Z,8.50
2023-02-28T04:43:39.775Z,7.82
2023-02-28T04:46:07.378Z,8.60
2023-02-28T04:48:36.234Z,8.07
2023-02-28T04:51:08.083Z,8.30
2023-02-28T04:53:35.795Z,7.22
2023-02-28T04:56:03.023Z,8.18
2023-02-28T04:58:30.976Z,8.10
2023-02-28T05:01:06.043Z,8.20
2023-02-28T05:03:33.318Z,8.02
2023-02-28T05:06:00.652Z,9.40
2023-02-28T05:08:30.712Z,8.57
2023-02-28T05:11:00.045Z,8.60
2023-02-28T05:13:27.329Z,8.52
2023-02-28T05:15:54.749Z,11.77
2023-02-28T05:18:22.581Z,11.20
2023-02-28T05:20:50.245Z,10.73
2023-02-28T05:23:19.540Z,13.88
2023-02-28T05:25:46.909Z,17.52
2023-02-28T05:28:15.361Z,15.48
2023-02-28T05:30:42.690Z,17.05
2023-02-28T05:33:16.559Z,16.65
2023-02-28T05:35:44.156Z,12.25
2023-02-28T05:38:11.492Z,11.13
2023-02-28T05:40:41.318Z,11.82
2023-02-28T05:43:13.755Z,10.85
2023-02-28T05:45:41.042Z,8.95
2023-02-28T05:48:08.256Z,8.73
2023-02-28T05:50:35.619Z,9.25
2023-02-28T05:53:02.983Z,8.98
2023-02-28T05:55:30.338Z,9.85
2023-02-28T05:57:57.641Z,8.52
2023-02-28T06:00:25.272Z,7.72
2023-02-28T06:02:57.207Z,8.07
2023-02-28T06:05:24.397Z,8.13
2023-02-28T06:07:51.762Z,8.45
2023-02-28T06:10:19.049Z,8.60
2023-02-28T06:12:46.226Z,9.77
2023-02-28T06:15:15.193Z,9.38
2023-02-28T06:17:43.258Z,8.23
2023-02-28T06:20:16.347Z,8.18
2023-02-28T06:22:43.833Z,7.97
2023-02-28T06:25:11.415Z,7.57
2023-02-28T06:27:38.637Z,8.38
2023-02-28T06:30:06.158Z,9.40
2023-02-28T06:32:33.387Z,8.95
2023-02-28T06:35:00.539Z,8.70
2023-02-28T06:37:27.840Z,8.52
2023-02-28T06:39:58.984Z,8.98
2023-02-28T06:42:29.921Z,8.57
2023-02-28T06:44:57.528Z,8.30
2023-02-28T06:47:26.468Z,8.65
2023-02-28T06:50:02.133Z,14.05
2023-02-28T06:52:29.383Z,9.85
2023-02-28T06:55:00.819Z,9.50
2023-02-28T06:57:34.707Z,9.40
2023-02-28T07:00:14.256Z,8.93
2023-02-28T07:08:07.197Z,9.35
2023-02-28T07:10:34.895Z,10.02
2023-02-28T07:13:05.214Z,9.27
2023-02-28T07:15:32.692Z,9.45
2023-02-28T07:17:59.931Z,9.23
2023-02-28T07:20:27.167Z,8.88
2023-02-28T07:22:57.418Z,8.75
2023-02-28T07:25:25.831Z,10.45
2023-02-28T07:27:54.974Z,10.98
2023-02-28T07:30:22.379Z,11.13
2023-02-28T07:32:49.689Z,12.40
2023-02-28T07:35:18.304Z,10.82
2023-02-28T07:37:45.788Z,9.85
2023-02-28T07:40:13.415Z,10.07
2023-02-28T07:42:41.236Z,11.70
2023-02-28T07:45:09.448Z,11.98
2023-02-28T07:47:36.626Z,11.85
2023-02-28T07:50:03.904Z,11.13
2023-02-28T07:52:31.252Z,11.60
2023-02-28T07:54:58.473Z,16.77
2023-02-28T07:57:26.463Z,15.95
2023-02-28T07:59:55.174Z,13.80
2023-02-28T08:02:22.482Z,11.82
2023-02-28T08:04:50.477Z,11.05
2023-02-28T08:07:18.477Z,11.57
2023-02-28T08:09:46.342Z,11.82
2023-02-28T08:12:13.893Z,13.30
2023-02-28T08:14:41.218Z,11.82
2023-02-28T08:17:08.608Z,11.18
2023-02-28T08:19:35.874Z,11.63
2023-02-28T08:22:03.435Z,11.38
2023-02-28T08:24:30.778Z,12.30
2023-02-28T08:27:00.814Z,11.18
2023-02-28T08:29:28.018Z,10.85
2023-02-28T08:31:55.351Z,10.48
2023-02-28T08:34:22.689Z,9.38
2023-02-28T08:36:49.908Z,10.93
2023-02-28T08:39:17.160Z,10.35
2023-02-28T08:41:45.114Z,9.32
2023-02-28T08:44:12.378Z,8.70
2023-02-28T08:46:39.998Z,9.80
2023-02-28T08:49:08.014Z,10.93
2023-02-28T08:51:35.363Z,9.70
2023-02-28T08:54:02.531Z,10.10
2023-02-28T08:56:30.102Z,10.52
2023-02-28T08:58:58.173Z,9.68
2023-02-28T09:01:30.026Z,8.23
2023-02-28T09:03:58.172Z,7.45
2023-02-28T09:06:26.991Z,7.20
2023-02-28T09:08:54.897Z,6.90
2023-02-28T09:11:22.119Z,10.15
2023-02-28T09:13:49.375Z,5.80
2023-02-28T09:16:18.108Z,8.00
2023-02-28T09:18:45.623Z,5.47
2023-02-28T09:21:15.170Z,4.93
2023-02-28T09:23:43.439Z,4.90
2023-02-28T09:26:15.201Z,4.50
2023-02-28T09:28:42.371Z,4.25
2023-02-28T09:31:13.694Z,4.70
2023-02-28T09:33:41.058Z,5.43
2023-02-28T09:36:08.358Z,4.82
2023-02-28T09:38:36.453Z,4.45
2023-02-28T09:41:05.554Z,4.60
2023-02-28T09:43:52.692Z,4.82
2023-02-28T09:46:20.081Z,4.10
2023-02-28T09:48:49.233Z,4.15
2023-02-28T09:51:38.404Z,3.70
2023-02-28T09:54:05.666Z,3.40
2023-02-28T09:56:35.601Z,3.13
2023-02-28T09:59:12.060Z,3.58
2023-02-28T10:01:43.228Z,2.90
2023-02-28T10:04:22.656Z,2.67
2023-02-28T10:06:53.890Z,2.63
2023-02-28T10:09:25.140Z,2.67
2023-02-28T10:11:55.196Z,2.65
2023-02-28T10:14:26.079Z,3.13
2023-02-28T10:16:56.180Z,3.05
2023-02-28T10:19:35.551Z,2.60
2023-02-28T10:22:05.044Z,2.85
2023-02-28T10:24:49.370Z,3.22
2023-02-28T10:27:21.275Z,2.42
2023-02-28T10:29:53.094Z,2.78
2023-02-28T10:32:24.622Z,2.35
2023-02-28T10:35:10.480Z,2.88
2023-02-28T10:37:41.227Z,3.35
2023-02-28T10:40:26.211Z,2.70
2023-02-28T10:42:58.149Z,2.55
2023-02-28T10:45:25.889Z,2.90
2023-02-28T10:47:54.922Z,2.95
2023-02-28T10:50:31.564Z,2.92
2023-02-28T10:53:09.298Z,3.35
2023-02-28T10:55:36.616Z,2.47
2023-02-28T10:58:04.275Z,2.35
2023-02-28T11:00:38.018Z,2.28
2023-02-28T11:03:24.299Z,2.03
2023-02-28T11:05:51.459Z,2.20
2023-02-28T11:08:19.163Z,2.30
2023-02-28T11:10:47.576Z,2.08
2023-02-28T11:13:21.953Z,2.40
2023-02-28T11:15:53.696Z,2.42
2023-02-28T11:18:32.434Z,2.53
2023-02-28T11:21:00.748Z,2.60
2023-02-28T11:23:29.061Z,2.65
2023-02-28T11:25:58.156Z,2.33
2023-02-28T11:28:28.463Z,2.38
2023-02-28T11:31:08.167Z,2.55
2023-02-28T11:33:45.980Z,2.78
2023-02-28T11:36:33.629Z,2.33
2023-02-28T11:39:03.070Z,3.08
2023-02-28T11:41:33.227Z,2.38
2023-02-28T11:44:15.956Z,2.30
2023-02-28T11:46:50.317Z,3.20
2023-02-28T11:49:32.491Z,2.22
2023-02-28T11:51:59.631Z,1.90
2023-02-28T11:54:44.909Z,2.20
2023-02-28T11:57:28.195Z,2.65
2023-02-28T12:00:10.343Z,4.80
2023-02-28T12:02:38.497Z,2.85
2023-02-28T12:05:21.072Z,2.67
2023-02-28T12:07:53.062Z,1.90
2023-02-28T12:10:26.746Z,1.65
2023-02-28T12:13:00.186Z,2.00
2023-02-28T12:15:36.663Z,1.80
2023-02-28T12:18:22.677Z,1.83
2023-02-28T12:20:57.985Z,2.00
2023-02-28T12:23:43.992Z,1.90
2023-02-28T12:26:17.924Z,1.80
2023-02-28T12:28:47.690Z,1.73
2023-02-28T12:31:31.584Z,1.83
2023-02-28T12:34:02.521Z,1.88
2023-02-28T12:36:29.784Z,1.52
2023-02-28T12:39:06.570Z,1.70
2023-02-28T12:41:40.894Z,1.70
2023-02-28T12:44:17.833Z,2.25
2023-02-28T12:46:49.886Z,1.90
2023-02-28T12:49:26.021Z,1.67
2023-02-28T12:51:53.839Z,1.55
2023-02-28T12:54:27.127Z,1.67
2023-02-28T12:57:08.230Z,1.75
2023-02-28T12:59:39.838Z,1.88
2023-02-28T13:02:25.851Z,3.07
2023-02-28T13:05:11.858Z,1.85
2023-02-28T13:08:00.789Z,8.88
2023-02-28T13:10:39.698Z,5.45
2023-02-28T13:13:07.042Z,2.33
2023-02-28T13:15:41.660Z,2.20
2023-02-28T13:18:28.923Z,2.50
2023-02-28T13:20:56.242Z,1.75
2023-02-28T13:23:42.208Z,1.98
2023-02-28T13:26:11.559Z,2.30
2023-02-28T13:28:54.957Z,2.50
2023-02-28T13:31:22.334Z,2.45
2023-02-28T13:33:53.391Z,2.70
2023-02-28T13:36:20.752Z,2.88
2023-02-28T13:38:54.518Z,2.17
2023-02-28T13:41:31.383Z,2.85
2023-02-28T13:44:03.265Z,2.42
2023-02-28T13:46:31.448Z,2.42
2023-02-28T13:49:19.131Z,2.40
2023-02-28T13:51:48.553Z,2.22
2023-02-28T13:54:18.819Z,2.38
2023-02-28T13:56:53.832Z,2.30
2023-02-28T13:59:41.271Z,2.47
2023-02-28T14:02:30.205Z,3.95
2023-02-28T14:05:01.066Z,2.95
2023-02-28T14:07:35.726Z,3.25
2023-02-28T14:10:06.615Z,2.10
2023-02-28T14:12:52.459Z,2.20
2023-02-28T14:15:29.626Z,2.08
2023-02-28T14:18:07.250Z,2.08
2023-02-28T14:20:36.875Z,2.25
2023-02-28T14:23:09.461Z,1.90
2023-02-28T14:25:36.711Z,1.75
2023-02-28T14:28:10.689Z,2.10
2023-02-28T14:30:56.742Z,2.10
2023-02-28T14:33:27.678Z,2.20
2023-02-28T14:36:01.117Z,2.28
2023-02-28T14:38:33.918Z,2.40
2023-02-28T14:41:04.409Z,1.83
2023-02-28T14:43:34.552Z,1.73
2023-02-28T14:46:03.691Z,2.33
2023-02-28T14:48:31.040Z,2.38
2023-02-28T14:51:01.516Z,2.08
2023-02-28T14:53:39.013Z,1.80
2023-02-28T14:56:06.712Z,1.90
2023-02-28T14:58:35.744Z,2.28
2023-02-28T15:01:05.929Z,2.10
2023-02-28T15:03:36.277Z,1.88
2023-02-28T15:06:07.546Z,2.10
2023-02-28T15:08:38.624Z,2.42
2023-02-28T15:11:06.184Z,2.30
2023-02-28T15:14:00.232Z,1.85
2023-02-28T15:16:33.932Z,2.67
2023-02-28T15:19:02.885Z,2.90
2023-02-28T15:21:38.060Z,2.90
2023-02-28T15:27:16.638Z,3.00
2023-02-28T15:29:55.192Z,2.70
2023-02-28T15:32:33.028Z,2.20
2023-02-28T15:35:01.127Z,2.22
2023-02-28T15:37:28.602Z,2.58
2023-02-28T15:39:57.241Z,2.80
2023-02-28T15:42:25.308Z,2.38
2023-02-28T15:44:52.480Z,2.20
2023-02-28T15:47:22.120Z,2.42
2023-02-28T15:49:51.682Z,3.03
2023-02-28T15:52:39.166Z,3.10
2023-02-28T15:55:14.182Z,2.47
2023-02-28T15:57:42.391Z,2.20
2023-02-28T16:00:13.298Z,2.78
2023-02-28T16:02:41.218Z,2.00
2023-02-28T16:05:13.729Z,2.30
2023-02-28T16:10:09.020Z,2.60
2023-02-28T16:12:37.643Z,2.40
2023-02-28T16:15:08.927Z,2.47
2023-02-28T16:17:40.832Z,2.45
2023-02-28T16:20:18.348Z,2.60
2023-02-28T16:22:46.763Z,2.50
2023-02-28T16:25:18.490Z,2.50
2023-02-28T16:27:46.823Z,2.60
2023-02-28T16:30:24.884Z,2.40
2023-02-28T16:32:52.817Z,2.65
2023-02-28T16:35:20.887Z,5.25
2023-02-28T16:37:48.329Z,3.88
2023-02-28T16:40:21.914Z,3.90
2023-02-28T16:42:50.647Z,6.25
2023-02-28T16:45:20.291Z,9.10
2023-02-28T16:47:48.150Z,4.40
2023-02-28T16:50:25.107Z,4.38
2023-02-28T16:52:56.139Z,3.25
2023-02-28T16:55:25.268Z,3.20
2023-02-28T16:57:57.159Z,3.47
2023-02-28T17:00:25.585Z,2.95
2023-02-28T17:02:53.164Z,3.40
2023-02-28T17:05:20.844Z,3.40
2023-02-28T17:07:48.957Z,3.70
2023-02-28T17:10:16.129Z,3.00
2023-02-28T17:12:43.379Z,3.03
2023-02-28T17:15:11.522Z,3.25
2023-02-28T17:17:38.965Z,3.50
2023-02-28T17:20:06.734Z,2.92
2023-02-28T17:22:34.500Z,3.78
2023-02-28T17:25:01.652Z,3.72
2023-02-28T17:27:28.925Z,4.72
2023-02-28T17:29:56.224Z,4.70
2023-02-28T17:32:23.469Z,4.05
2023-02-28T17:34:50.843Z,3.55
2023-02-28T17:37:18.147Z,3.85
2023-02-28T17:39:45.446Z,3.97
2023-02-28T17:42:13.222Z,4.47
2023-02-28T17:44:40.433Z,4.63
2023-02-28T17:47:07.664Z,4.68
2023-02-28T17:49:35.010Z,5.47
2023-02-28T17:52:02.171Z,15.88
2023-02-28T17:54:29.394Z,5.97
2023-02-28T17:56:56.793Z,5.60
2023-02-28T17:59:24.041Z,5.35
2023-02-28T18:01:51.269Z,4.90
2023-02-28T18:04:18.471Z,6.78
2023-02-28T18:06:50.986Z,5.38
2023-02-28T18:09:22.583Z,5.72
2023-02-28T18:11:53.536Z,6.35
2023-02-28T18:14:21.758Z,6.18
2023-02-28T18:16:48.925Z,5.95
2023-02-28T18:19:17.340Z,6.28
2023-02-28T18:21:45.327Z,7.28
2023-02-28T18:24:12.666Z,6.95
2023-02-28T18:26:40.719Z,8.27
2023-02-28T18:29:08.651Z,8.30
2023-02-28T18:31:35.933Z,7.20
2023-02-28T18:34:03.224Z,8.40
2023-02-28T18:36:30.793Z,8.88
2023-02-28T18:38:58.971Z,9.35
2023-02-28T18:41:26.338Z,8.73
2023-02-28T18:43:54.259Z,8.57
2023-02-28T18:46:21.735Z,8.93
2023-02-28T18:48:48.993Z,8.63
2023-02-28T18:51:17.817Z,9.18
2023-02-28T18:53:45.156Z,9.50
2023-02-28T18:56:13.849Z,9.40
2023-02-28T18:58:41.298Z,14.10
2023-02-28T19:01:16.396Z,15.93
2023-02-28T19:03:44.038Z,12.20
2023-02-28T19:06:11.350Z,15.98
2023-02-28T19:08:38.666Z,16.63
2023-02-28T19:11:13.956Z,16.88
2023-02-28T19:13:41.236Z,14.98
2023-02-28T19:16:10.059Z,21.73
2023-02-28T19:18:37.370Z,20.38
2023-02-28T19:21:07.008Z,9.27
2023-02-28T19:23:34.688Z,8.20
2023-02-28T19:26:01.909Z,9.32
2023-02-28T19:28:30.798Z,9.30
2023-02-28T19:30:58.053Z,9.82
2023-02-28T19:33:25.308Z,10.90
2023-02-28T19:35:54.248Z,9.85
2023-02-28T19:38:21.525Z,17.30
2023-02-28T19:40:48.774Z,17.48
2023-02-28T19:43:16.105Z,20.50
2023-02-28T19:45:43.681Z,17.67
2023-02-28T19:48:10.915Z,20.50
2023-02-28T19:50:38.274Z,12.82
2023-02-28T19:53:05.570Z,12.23
2023-02-28T19:55:32.777Z,9.30
2023-02-28T19:58:00.157Z,9.45
2023-02-28T20:00:27.505Z,8.77
2023-02-28T20:02:54.913Z,10.57
2023-02-28T20:05:22.178Z,10.60
2023-02-28T20:07:49.436Z,9.63
2023-02-28T20:10:16.781Z,9.48
2023-02-28T20:13:07.296Z,9.65
2023-02-28T20:15:34.636Z,9.48
2023-02-28T20:18:02.007Z,9.82
2023-02-28T20:20:29.220Z,11.75
2023-02-28T20:22:56.446Z,14.02
2023-02-28T20:25:23.734Z,12.05
2023-02-28T20:27:51.025Z,14.43
2023-02-28T20:30:22.020Z,13.43
2023-02-28T20:32:49.620Z,15.57
2023-02-28T20:35:16.851Z,13.80
2023-02-28T20:37:44.790Z,11.45
2023-02-28T20:40:12.383Z,12.30
2023-02-28T20:42:39.775Z,11.95
2023-02-28T20:45:07.337Z,14.15
2023-02-28T20:47:34.586Z,16.42
2023-02-28T20:50:01.868Z,15.35
2023-02-28T20:52:29.087Z,13.88
2023-02-28T20:54:56.279Z,13.10
2023-02-28T20:57:23.493Z,11.98
2023-02-28T20:59:50.677Z,13.15
2023-02-28T21:02:18.148Z,12.75
2023-02-28T21:04:45.510Z,13.80
2023-02-28T21:07:12.734Z,14.15
2023-02-28T21:09:40.176Z,39.45
2023-02-28T21:12:07.459Z,19.67
2023-02-28T21:14:35.166Z,15.40
2023-02-28T21:17:02.459Z,17.25
2023-02-28T21:19:29.704Z,15.90
2023-02-28T21:21:57.000Z,17.20
2023-02-28T21:24:24.268Z,15.82
2023-02-28T21:26:52.861Z,13.73
2023-02-28T21:29:20.272Z,14.35
2023-02-28T21:31:47.630Z,13.20
2023-02-28T21:34:18.391Z,12.85
2023-02-28T21:36:45.875Z,12.65
2023-02-28T21:39:19.365Z,12.10
2023-02-28T21:41:46.911Z,11.88
2023-02-28T21:44:18.892Z,10.57
2023-02-28T21:46:46.892Z,11.52
2023-02-28T21:49:14.833Z,17.10
2023-02-28T21:51:42.851Z,15.38
2023-02-28T21:54:11.030Z,12.60
2023-02-28T21:56:38.756Z,12.23
2023-02-28T21:59:07.251Z,12.35
2023-02-28T22:01:35.983Z,12.95
2023-02-28T22:04:04.167Z,12.70
2023-02-28T22:06:33.073Z,15.27
2023-02-28T22:09:02.320Z,15.73
2023-02-28T22:11:29.605Z,15.45
2023-02-28T22:13:57.900Z,13.43
2023-02-28T22:16:26.643Z,14.80
2023-02-28T22:18:55.133Z,16.08
2023-02-28T22:21:22.608Z,13.50
2023-02-28T22:23:50.391Z,12.77
2023-02-28T22:26:19.470Z,15.90
2023-02-28T22:28:46.668Z,14.98
2023-02-28T22:31:16.942Z,14.70
2023-02-28T22:33:44.625Z,14.95
2023-02-28T22:36:12.885Z,13.45
2023-02-28T22:38:40.186Z,14.75
2023-02-28T22:41:07.817Z,13.60
2023-02-28T22:43:35.266Z,13.98
2023-02-28T22:46:06.728Z,12.88
2023-02-28T22:48:34.454Z,14.13
2023-02-28T22:51:08.831Z,14.40
2023-02-28T22:53:36.830Z,14.02
2023-02-28T22:56:04.444Z,15.07
2023-02-28T22:58:32.020Z,14.35
2023-02-28T23:01:06.423Z,11.93
2023-02-28T23:03:34.231Z,13.73
2023-02-28T23:06:01.478Z,15.05
2023-02-28T23:08:30.371Z,16.05
2023-02-28T23:10:57.623Z,14.75
2023-02-28T23:13:24.888Z,15.45
2023-02-28T23:15:52.286Z,14.30
2023-02-28T23:18:19.697Z,14.30
2023-02-28T23:20:46.974Z,15.18
2023-02-28T23:23:14.426Z,14.50
2023-02-28T23:25:42.145Z,14.48
2023-02-28T23:28:13.418Z,13.25
2023-02-28T23:30:40.794Z,14.27
2023-02-28T23:33:08.307Z,14.88
2023-02-28T23:35:35.557Z,14.40
2023-02-28T23:38:02.877Z,16.23
2023-02-28T23:40:30.127Z,13.70
2023-02-28T23:42:57.337Z,16.30
2023-02-28T23:45:24.753Z,14.82
2023-02-28T23:47:52.028Z,14.00
2023-02-28T23:50:19.354Z,16.63
2023-02-28T23:52:46.565Z,15.98
2023-02-28T23:55:13.911Z,16.90
2023-02-28T23:57:41.301Z,17.80
